Time;durP1;ratioP1;P1;durP2;ratioP2;P2;SDS_P1;SDS_P2;PMS_P1;PMS_P2;Temp;Humidity;BMP_temperature;BMP_pressure;BME280_temperature;BME280_humidity;BME280_pressure;Samples;Min_cycle;Max_cycle;Signal;HPM_P1;HPM_P2
2023/05/20 04:00:30;;;;;;;0.82;0.30;;;9.40;99.90;;;;;;5897783;23;21362;-74
2023/05/20 04:02:57;;;;;;;1.40;1.40;;;9.40;99.90;;;;;;4962366;28;20728;-74
2023/05/20 04:05:24;;;;;;;4.00;0.55;;;9.40;99.90;;;;;;4964322;28;20205;-74
2023/05/20 04:07:51;;;;;;;0.50;0.50;;;9.50;99.90;;;;;;4962313;28;20619;-74
2023/05/20 04:10:19;;;;;;;0.38;0.38;;;9.50;99.90;;;;;;4963678;28;20216;-74
2023/05/20 04:12:46;;;;;;;0.52;0.52;;;9.50;99.90;;;;;;4965071;28;20212;-73
2023/05/20 04:17:47;;;;;;;0.68;0.68;;;9.60;99.90;;;;;;4942217;28;20217;-72
2023/05/20 04:20:14;;;;;;;0.47;0.40;;;9.70;99.90;;;;;;4939887;29;20228;-73
2023/05/20 04:22:40;;;;;;;0.50;0.50;;;9.70;99.90;;;;;;4934171;29;20296;-73
2023/05/20 04:25:08;;;;;;;0.60;0.60;;;9.90;99.90;;;;;;4950920;29;20666;-74
2023/05/20 04:27:36;;;;;;;0.95;0.63;;;10.10;99.90;;;;;;4930678;29;20209;-74
2023/05/20 04:30:03;;;;;;;0.95;0.63;;;10.40;99.90;;;;;;4924363;29;20213;-74
2023/05/20 04:32:30;;;;;;;0.30;0.30;;;10.60;99.90;;;;;;4929422;29;20274;-74
2023/05/20 04:34:59;;;;;;;0.82;0.82;;;10.90;99.90;;;;;;4929260;29;20593;-74
2023/05/20 04:37:26;;;;;;;0.43;0.43;;;11.10;99.90;;;;;;4925131;29;20772;-73
2023/05/20 04:39:52;;;;;;;0.88;0.45;;;11.10;99.90;;;;;;4928621;29;20214;-74
2023/05/20 04:42:21;;;;;;;1.00;0.57;;;11.40;99.90;;;;;;4930170;29;20213;-74
2023/05/20 04:44:47;;;;;;;0.70;0.70;;;11.50;99.90;;;;;;4922102;29;20270;-74
2023/05/20 04:47:14;;;;;;;1.15;0.70;;;11.60;99.90;;;;;;4925705;29;20223;-74
2023/05/20 04:49:42;;;;;;;0.60;0.60;;;11.70;99.90;;;;;;4928727;29;20214;-72
2023/05/20 04:52:10;;;;;;;0.60;0.47;;;11.70;99.90;;;;;;4923806;29;20635;-72
2023/05/20 04:54:37;;;;;;;0.43;0.43;;;11.80;99.90;;;;;;4925151;29;20476;-72
2023/05/20 04:57:04;;;;;;;0.95;0.45;;;11.80;99.90;;;;;;4931985;29;20238;-72
2023/05/20 04:59:31;;;;;;;0.60;0.60;;;11.80;99.90;;;;;;4931790;29;20208;-71
2023/05/20 05:01:57;;;;;;;0.57;0.50;;;11.90;99.90;;;;;;4934234;29;20470;-72
2023/05/20 05:04:24;;;;;;;1.00;1.00;;;11.80;99.90;;;;;;4928972;29;20496;-72
2023/05/20 05:06:51;;;;;;;0.20;0.20;;;11.90;99.90;;;;;;4926045;29;20225;-72
2023/05/20 05:09:19;;;;;;;0.60;0.53;;;12.00;99.90;;;;;;4935183;29;20469;-72
2023/05/20 05:11:45;;;;;;;0.43;0.43;;;12.10;99.90;;;;;;4929381;29;20476;-73
2023/05/20 05:14:12;;;;;;;0.47;0.47;;;12.30;99.90;;;;;;4924696;29;20475;-72
2023/05/20 05:16:39;;;;;;;0.40;0.40;;;12.40;99.90;;;;;;4927765;29;20493;-72
2023/05/20 05:19:06;;;;;;;0.90;0.90;;;12.50;99.90;;;;;;4930903;29;20478;-73
2023/05/20 05:21:32;;;;;;;0.63;0.63;;;12.50;99.90;;;;;;4931045;29;20477;-72
2023/05/20 05:23:59;;;;;;;0.47;0.47;;;12.50;99.90;;;;;;4926878;29;20477;-73
2023/05/20 05:26:27;;;;;;;0.87;0.40;;;12.50;99.90;;;;;;4926941;29;20488;-72
2023/05/20 05:28:55;;;;;;;0.63;0.50;;;12.50;99.90;;;;;;4932968;29;20504;-73
2023/05/20 05:31:21;;;;;;;0.40;0.40;;;12.50;99.90;;;;;;4929738;29;20475;-72
2023/05/20 05:33:48;;;;;;;1.00;0.77;;;12.50;99.90;;;;;;4930643;29;20484;-73
2023/05/20 05:36:15;;;;;;;0.30;0.30;;;12.30;99.90;;;;;;4933133;29;20500;-72
2023/05/20 05:38:43;;;;;;;0.60;0.60;;;12.40;99.90;;;;;;4934817;29;20478;-73
2023/05/20 05:41:09;;;;;;;0.37;0.37;;;12.40;99.90;;;;;;4920245;29;20476;-73
2023/05/20 05:43:37;;;;;;;0.50;0.50;;;12.40;99.90;;;;;;4928736;29;20493;-73
2023/05/20 05:46:05;;;;;;;0.40;0.40;;;12.40;99.90;;;;;;4930121;29;20517;-73
2023/05/20 05:48:32;;;;;;;0.63;0.40;;;12.50;99.90;;;;;;4922936;29;20474;-73
2023/05/20 05:50:58;;;;;;;0.80;0.80;;;12.60;99.90;;;;;;4930883;29;20478;-72
2023/05/20 05:53:25;;;;;;;0.60;0.60;;;12.90;99.90;;;;;;4926049;29;20496;-71
2023/05/20 05:55:52;;;;;;;0.40;0.33;;;12.90;99.90;;;;;;4924258;29;20542;-72
2023/05/20 05:58:19;;;;;;;0.40;0.40;;;13.10;99.90;;;;;;4923738;29;20977;-73
2023/05/20 06:00:47;;;;;;;2.23;0.70;;;13.40;99.90;;;;;;4920474;29;20488;-72
2023/05/20 06:03:13;;;;;;;0.70;0.70;;;13.80;99.90;;;;;;4932196;29;20478;-71
2023/05/20 06:05:40;;;;;;;0.70;0.70;;;14.20;99.90;;;;;;4928304;29;20501;-73
2023/05/20 06:08:07;;;;;;;0.77;0.77;;;14.70;99.90;;;;;;4925021;29;20470;-73
2023/05/20 06:10:34;;;;;;;0.40;0.40;;;15.10;99.90;;;;;;4924013;29;20497;-72
2023/05/20 06:13:01;;;;;;;0.50;0.50;;;15.50;99.90;;;;;;4924390;29;20853;-72
2023/05/20 06:15:28;;;;;;;0.63;0.63;;;15.70;99.90;;;;;;4930281;29;20484;-72
2023/05/20 06:17:56;;;;;;;0.87;0.87;;;15.90;99.90;;;;;;4928660;29;20481;-72
2023/05/20 06:20:22;;;;;;;0.80;0.80;;;16.20;99.90;;;;;;4927237;29;20469;-72
2023/05/20 06:22:49;;;;;;;0.97;0.50;;;16.40;99.90;;;;;;4926499;29;20488;-72
2023/05/20 06:25:16;;;;;;;0.97;0.97;;;16.50;99.90;;;;;;4928332;29;20476;-72
2023/05/20 06:27:43;;;;;;;2.20;0.67;;;16.50;99.90;;;;;;4931015;29;20461;-72
2023/05/20 06:30:10;;;;;;;0.57;0.57;;;16.60;99.90;;;;;;4927945;29;20878;-72
2023/05/20 06:32:37;;;;;;;0.60;0.60;;;16.70;99.90;;;;;;4932828;29;20466;-72
2023/05/20 06:35:07;;;;;;;0.70;0.70;;;17.00;99.90;;;;;;4915983;29;20486;-72
2023/05/20 06:37:34;;;;;;;0.67;0.50;;;17.40;99.90;;;;;;4926697;29;20576;-72
2023/05/20 06:40:00;;;;;;;0.60;0.60;;;17.50;99.90;;;;;;4924847;29;20503;-72
2023/05/20 06:42:27;;;;;;;0.63;0.63;;;17.80;99.90;;;;;;4925358;29;20500;-72
2023/05/20 06:44:54;;;;;;;1.03;0.80;;;17.50;99.90;;;;;;4928598;29;20465;-72
2023/05/20 06:47:21;;;;;;;1.13;1.13;;;17.80;99.90;;;;;;4934318;29;20576;-72
2023/05/20 06:49:47;;;;;;;0.70;0.70;;;18.20;99.90;;;;;;4933392;29;20497;-71
2023/05/20 06:52:15;;;;;;;0.80;0.70;;;18.60;99.90;;;;;;4923313;29;20498;-71
2023/05/20 06:54:43;;;;;;;0.90;0.90;;;18.70;99.90;;;;;;4928245;29;20461;-71
2023/05/20 06:57:10;;;;;;;0.80;0.80;;;18.80;99.90;;;;;;4933455;29;20531;-71
2023/05/20 06:59:37;;;;;;;0.73;0.50;;;18.90;99.90;;;;;;4933024;29;20995;-72
2023/05/20 07:02:05;;;;;;;0.70;0.70;;;19.00;99.90;;;;;;4930973;29;20522;-71
2023/05/20 07:04:31;;;;;;;0.50;0.50;;;18.80;99.90;;;;;;4925632;29;20975;-71
2023/05/20 07:06:58;;;;;;;0.60;0.60;;;18.70;99.90;;;;;;4933629;29;20861;-72
2023/05/20 07:09:27;;;;;;;0.60;0.60;;;18.70;99.90;;;;;;4932368;29;20469;-72
2023/05/20 07:11:53;;;;;;;0.60;0.60;;;19.30;99.90;;;;;;4931480;29;20541;-71
2023/05/20 07:14:20;;;;;;;0.70;0.70;;;19.60;99.90;;;;;;4932964;29;20471;-71
2023/05/20 07:16:47;;;;;;;0.80;0.80;;;20.00;99.90;;;;;;4933307;29;20468;-71
2023/05/20 07:19:13;;;;;;;0.90;0.90;;;20.10;99.90;;;;;;4932334;29;20212;-71
2023/05/20 07:21:41;;;;;;;1.27;0.80;;;20.00;99.90;;;;;;4928448;29;20471;-70
2023/05/20 07:24:07;;;;;;;0.40;0.40;;;19.80;99.90;;;;;;4922548;29;20460;-71
2023/05/20 07:26:35;;;;;;;0.67;0.67;;;19.80;99.90;;;;;;4931609;29;20970;-71
2023/05/20 07:29:03;;;;;;;0.83;0.50;;;20.10;99.90;;;;;;4926599;29;20988;-71
2023/05/20 07:31:30;;;;;;;0.67;0.67;;;20.50;99.90;;;;;;4924018;29;20477;-71
2023/05/20 07:33:57;;;;;;;1.10;1.10;;;21.20;99.90;;;;;;4930395;29;20470;-72
2023/05/20 07:36:24;;;;;;;0.67;0.57;;;21.50;99.90;;;;;;4920535;29;20618;-72
2023/05/20 07:38:50;;;;;;;0.80;0.80;;;21.50;99.90;;;;;;4929227;29;20814;-72
2023/05/20 07:41:17;;;;;;;0.80;0.80;;;21.20;99.90;;;;;;4922985;29;20499;-71
2023/05/20 07:43:45;;;;;;;0.60;0.60;;;20.90;99.90;;;;;;4928732;29;20498;-71
2023/05/20 07:46:12;;;;;;;1.13;0.87;;;21.10;99.90;;;;;;4926317;29;20494;-71
2023/05/20 07:48:39;;;;;;;0.53;0.53;;;21.00;99.90;;;;;;4924578;29;20479;-71
2023/05/20 07:51:06;;;;;;;0.60;0.60;;;20.70;99.90;;;;;;4922772;29;20959;-72
2023/05/20 07:53:33;;;;;;;1.17;1.00;;;20.30;99.90;;;;;;4932100;29;20476;-70
2023/05/20 07:56:00;;;;;;;1.00;0.70;;;20.30;99.90;;;;;;4916943;29;20529;-71
2023/05/20 07:58:27;;;;;;;1.03;1.03;;;20.30;99.90;;;;;;4932850;29;20498;-70
2023/05/20 08:00:56;;;;;;;0.50;0.43;;;20.30;99.90;;;;;;4929552;29;20541;-72
2023/05/20 08:03:22;;;;;;;0.53;0.53;;;20.20;99.90;;;;;;4920342;29;20487;-67
2023/05/20 08:05:49;;;;;;;0.50;0.50;;;19.70;99.90;;;;;;4929911;29;20490;-66
2023/05/20 08:08:16;;;;;;;0.60;0.60;;;18.90;99.90;;;;;;4930701;29;20553;-67
2023/05/20 08:10:43;;;;;;;0.70;0.70;;;18.70;99.90;;;;;;4927472;29;20610;-66
2023/05/20 08:13:10;;;;;;;0.70;0.70;;;18.60;99.90;;;;;;4929732;29;20477;-67
2023/05/20 08:15:37;;;;;;;0.50;0.50;;;18.50;99.90;;;;;;4924993;29;20506;-67
2023/05/20 08:18:05;;;;;;;0.50;0.50;;;18.30;99.90;;;;;;4927390;29;20521;-72
2023/05/20 08:20:31;;;;;;;0.70;0.70;;;18.10;99.90;;;;;;4917084;29;20481;-72
2023/05/20 08:22:58;;;;;;;0.47;0.47;;;18.10;99.90;;;;;;4926602;29;20473;-72
2023/05/20 08:25:25;;;;;;;2.47;1.20;;;17.90;99.90;;;;;;4925782;29;20493;-71
2023/05/20 08:27:51;;;;;;;1.63;1.10;;;17.60;99.90;;;;;;4927741;29;20461;-71
2023/05/20 08:30:18;;;;;;;0.73;0.73;;;17.10;99.90;;;;;;4930210;29;20473;-71
2023/05/20 08:32:45;;;;;;;0.40;0.40;;;16.80;99.90;;;;;;4933655;29;20942;-71
2023/05/20 08:35:13;;;;;;;1.40;0.73;;;16.90;99.90;;;;;;4933261;29;20481;-72
2023/05/20 08:37:40;;;;;;;0.80;0.67;;;17.20;99.90;;;;;;4920545;29;20593;-72
2023/05/20 08:40:08;;;;;;;2.33;0.50;;;17.60;99.90;;;;;;4928283;29;20481;-70
2023/05/20 08:42:35;;;;;;;0.63;0.63;;;18.00;99.90;;;;;;4932999;29;20505;-69
2023/05/20 08:45:02;;;;;;;0.60;0.60;;;18.10;99.90;;;;;;4928983;29;20473;-69
2023/05/20 08:47:29;;;;;;;0.73;0.73;;;18.00;99.90;;;;;;4932747;29;20855;-70
2023/05/20 08:49:56;;;;;;;0.70;0.70;;;17.90;99.90;;;;;;4931888;29;20466;-71
2023/05/20 08:52:24;;;;;;;0.80;0.80;;;17.60;99.90;;;;;;4929789;29;20510;-73
2023/05/20 08:54:52;;;;;;;0.40;0.40;;;17.40;99.90;;;;;;4932226;29;20457;-71
2023/05/20 08:57:19;;;;;;;0.50;0.50;;;17.20;99.90;;;;;;4934553;29;20489;-70
2023/05/20 08:59:46;;;;;;;0.90;0.90;;;17.20;99.90;;;;;;4925683;29;20967;-72
2023/05/20 09:02:13;;;;;;;0.70;0.50;;;17.20;99.90;;;;;;4925575;29;20486;-72
2023/05/20 09:04:40;;;;;;;0.67;0.67;;;17.10;99.90;;;;;;4919790;29;20462;-72
2023/05/20 09:07:07;;;;;;;0.70;0.70;;;17.10;99.90;;;;;;4923515;29;20482;-72
2023/05/20 09:09:35;;;;;;;1.00;1.00;;;16.80;99.90;;;;;;4917535;29;20474;-72
2023/05/20 09:12:03;;;;;;;0.40;0.40;;;16.70;99.90;;;;;;4929228;29;20502;-72
2023/05/20 09:14:30;;;;;;;0.57;0.57;;;16.70;99.90;;;;;;4931110;29;20466;-72
2023/05/20 09:16:56;;;;;;;0.43;0.43;;;16.80;99.90;;;;;;4932472;29;20508;-72
2023/05/20 09:19:24;;;;;;;0.87;0.70;;;16.80;99.90;;;;;;4930081;29;20504;-72
2023/05/20 09:21:53;;;;;;;1.80;0.40;;;17.00;99.90;;;;;;4928027;29;20466;-72
2023/05/20 09:24:22;;;;;;;0.87;0.87;;;16.90;99.90;;;;;;4935480;29;20592;-71
2023/05/20 09:26:51;;;;;;;0.40;0.40;;;16.90;99.90;;;;;;4932877;29;20493;-72
2023/05/20 09:29:18;;;;;;;1.20;0.70;;;17.00;99.90;;;;;;4930775;29;20962;-72
2023/05/20 09:31:45;;;;;;;0.70;0.70;;;17.10;99.90;;;;;;4935598;29;20505;-72
2023/05/20 09:34:12;;;;;;;1.80;0.60;;;17.30;99.90;;;;;;4935244;29;20521;-71
2023/05/20 09:36:40;;;;;;;0.90;0.77;;;17.50;99.90;;;;;;4933379;29;20489;-71
2023/05/20 09:39:11;;;;;;;0.33;0.33;;;17.60;99.90;;;;;;4916305;29;20968;-71
2023/05/20 09:41:43;;;;;;;5.03;0.80;;;17.90;99.90;;;;;;4916178;29;20466;-71
2023/05/20 09:44:12;;;;;;;1.10;1.00;;;17.90;99.90;;;;;;4916566;29;20513;-71
2023/05/20 09:46:41;;;;;;;1.90;0.80;;;17.70;99.90;;;;;;4929966;29;20522;-71
2023/05/20 09:49:08;;;;;;;0.97;0.63;;;17.60;99.90;;;;;;4928220;29;20837;-71
2023/05/20 09:51:35;;;;;;;1.00;0.90;;;17.70;99.90;;;;;;4934370;29;20470;-71
2023/05/20 09:54:03;;;;;;;0.77;0.77;;;17.90;99.90;;;;;;4926920;29;20465;-71
2023/05/20 09:56:31;;;;;;;1.20;1.10;;;17.80;99.90;;;;;;4933585;29;20884;-71
2023/05/20 09:58:59;;;;;;;0.60;0.60;;;17.60;99.90;;;;;;4927641;29;20580;-71
2023/05/20 10:01:28;;;;;;;0.60;0.60;;;17.50;99.90;;;;;;4934652;29;20557;-71
2023/05/20 10:03:56;;;;;;;0.47;0.47;;;17.40;99.90;;;;;;4930972;29;20484;-71
2023/05/20 10:06:38;;;;;;;0.50;0.50;;;17.20;99.90;;;;;;4926356;29;20537;-71
2023/05/20 10:09:37;;;;;;;0.47;0.47;;;17.10;99.90;;;;;;4935003;29;20800;-70
2023/05/20 10:12:13;;;;;;;0.40;0.40;;;17.10;99.90;;;;;;4926564;29;20481;-70
2023/05/20 10:14:50;;;;;;;0.40;0.40;;;17.40;99.90;;;;;;4934558;29;20472;-70
2023/05/20 10:17:25;;;;;;;0.60;0.60;;;17.50;99.90;;;;;;4965303;23;20503;-72
2023/05/20 10:19:58;;;;;;;1.80;0.67;;;17.50;99.90;;;;;;4965422;28;20967;-71
2023/05/20 10:22:30;;;;;;;0.63;0.63;;;17.50;99.90;;;;;;4968300;28;20872;-71
2023/05/20 10:25:05;;;;;;;0.73;0.57;;;17.40;99.90;;;;;;4972623;28;20472;-71
2023/05/20 10:27:43;;;;;;;0.67;0.67;;;17.40;99.90;;;;;;4960702;28;20552;-71
2023/05/20 10:30:17;;;;;;;1.43;1.30;;;17.20;99.90;;;;;;4954857;28;20512;-73
2023/05/20 10:32:56;;;;;;;0.87;0.87;;;17.20;99.90;;;;;;4973035;28;20463;-71
2023/05/20 10:35:26;;;;;;;0.70;0.70;;;17.20;99.90;;;;;;4965930;28;20960;-72
2023/05/20 10:37:53;;;;;;;0.30;0.30;;;17.10;99.90;;;;;;4970934;28;20499;-72
2023/05/20 10:40:22;;;;;;;0.77;0.77;;;17.00;99.90;;;;;;4973199;28;20512;-72
2023/05/20 10:42:48;;;;;;;2.30;0.70;;;16.90;99.90;;;;;;4965070;28;20470;-71
2023/05/20 10:45:25;;;;;;;0.70;0.70;;;16.90;99.90;;;;;;4970283;28;20476;-72
2023/05/20 10:47:57;;;;;;;0.83;0.83;;;17.00;99.90;;;;;;4967445;28;20543;-72
2023/05/20 10:50:28;;;;;;;1.07;1.07;;;17.00;99.90;;;;;;4975513;28;20487;-72
2023/05/20 10:52:56;;;;;;;0.50;0.50;;;17.00;99.90;;;;;;4970344;28;20619;-72
2023/05/20 10:55:23;;;;;;;1.07;1.07;;;17.00;99.90;;;;;;4966143;28;20472;-72
2023/05/20 10:57:51;;;;;;;1.00;1.00;;;17.10;99.90;;;;;;4965138;28;20983;-72
2023/05/20 11:00:19;;;;;;;2.30;0.93;;;17.10;99.90;;;;;;4972736;28;20464;-73
2023/05/20 11:02:49;;;;;;;0.60;0.60;;;17.10;99.90;;;;;;4963456;28;20513;-74
2023/05/20 11:05:17;;;;;;;0.40;0.40;;;17.00;99.90;;;;;;4965699;28;20548;-73
2023/05/20 11:07:44;;;;;;;2.40;0.73;;;17.00;99.90;;;;;;4966715;28;20487;-73
2023/05/20 11:10:11;;;;;;;0.60;0.60;;;16.80;99.90;;;;;;4969344;28;20472;-73
2023/05/20 11:12:39;;;;;;;0.83;0.83;;;16.80;99.90;;;;;;4964414;28;20468;-73
2023/05/20 11:15:06;;;;;;;0.93;0.50;;;16.90;99.90;;;;;;4970647;28;20543;-72
2023/05/20 11:17:33;;;;;;;0.53;0.53;;;17.10;99.90;;;;;;4962491;28;20505;-71
2023/05/20 11:20:01;;;;;;;1.40;1.30;;;17.10;99.90;;;;;;4971661;28;20468;-71
2023/05/20 11:22:29;;;;;;;0.70;0.70;;;17.00;99.90;;;;;;4970571;28;21051;-72
2023/05/20 11:24:56;;;;;;;1.10;1.07;;;16.90;99.90;;;;;;4963388;28;20471;-72
2023/05/20 11:27:22;;;;;;;1.27;1.00;;;16.70;99.90;;;;;;4965828;28;20495;-72
2023/05/20 11:29:50;;;;;;;0.77;0.77;;;16.60;99.90;;;;;;4963966;28;20487;-72
2023/05/20 11:32:20;;;;;;;0.83;0.83;;;16.60;99.90;;;;;;4971724;28;20853;-72
2023/05/20 11:34:51;;;;;;;0.50;0.50;;;16.70;99.90;;;;;;4971071;28;20467;-72
2023/05/20 11:37:20;;;;;;;0.97;0.97;;;16.70;99.90;;;;;;4964636;28;21005;-72
2023/05/20 11:39:48;;;;;;;1.00;1.00;;;16.70;99.90;;;;;;4966712;28;20484;-72
2023/05/20 11:42:15;;;;;;;1.70;0.87;;;16.70;99.90;;;;;;4962962;28;20475;-72
2023/05/20 11:44:44;;;;;;;1.20;1.10;;;16.70;99.90;;;;;;4961318;28;20468;-72
2023/05/20 11:47:11;;;;;;;1.20;1.20;;;16.80;99.90;;;;;;4969768;28;20491;-73
2023/05/20 11:49:41;;;;;;;0.63;0.63;;;16.90;99.90;;;;;;4964576;28;20456;-74
2023/05/20 11:52:10;;;;;;;0.73;0.73;;;16.80;99.90;;;;;;4971010;28;20498;-72
2023/05/20 11:54:37;;;;;;;1.03;1.03;;;16.80;99.90;;;;;;4970867;28;20499;-72
2023/05/20 11:57:05;;;;;;;1.23;1.23;;;16.80;99.90;;;;;;4966244;28;20493;-72
2023/05/20 11:59:33;;;;;;;0.77;0.77;;;16.70;99.90;;;;;;4967120;28;20484;-72
2023/05/20 12:01:59;;;;;;;0.80;0.80;;;16.70;99.90;;;;;;4970844;28;20472;-71
2023/05/20 12:04:26;;;;;;;0.80;0.80;;;16.50;99.90;;;;;;4962642;28;20479;-71
2023/05/20 12:06:54;;;;;;;0.87;0.87;;;16.50;99.90;;;;;;4970955;28;20491;-71
2023/05/20 12:09:21;;;;;;;4.03;1.43;;;16.70;99.90;;;;;;4971079;28;20574;-71
2023/05/20 12:11:48;;;;;;;1.10;1.10;;;16.80;99.90;;;;;;4966874;28;20476;-72
2023/05/20 12:14:16;;;;;;;1.43;1.27;;;16.80;99.90;;;;;;4954253;28;20471;-72
2023/05/20 12:16:42;;;;;;;1.40;1.30;;;16.90;99.90;;;;;;4962611;28;20521;-72
2023/05/20 12:19:09;;;;;;;1.07;1.07;;;17.00;99.90;;;;;;4971289;28;20832;-72
2023/05/20 12:21:36;;;;;;;1.07;1.07;;;16.90;99.90;;;;;;4971072;28;20468;-72
2023/05/20 12:24:05;;;;;;;2.43;1.23;;;16.90;99.90;;;;;;4969718;28;20463;-73
2023/05/20 12:26:33;;;;;;;1.30;1.30;;;16.90;99.90;;;;;;4964568;28;20495;-71
2023/05/20 12:29:01;;;;;;;0.90;0.90;;;16.80;99.90;;;;;;4962233;28;20496;-71
2023/05/20 12:31:29;;;;;;;1.50;1.50;;;16.80;99.90;;;;;;4963207;28;20548;-71
2023/05/20 12:33:55;;;;;;;1.33;1.33;;;16.80;99.90;;;;;;4951303;28;20789;-71
2023/05/20 12:36:22;;;;;;;1.80;0.90;;;16.90;99.90;;;;;;4957737;28;20510;-72
2023/05/20 12:38:49;;;;;;;0.97;0.97;;;17.00;99.90;;;;;;4955667;28;20476;-72
2023/05/20 12:41:16;;;;;;;3.70;1.17;;;17.00;99.90;;;;;;4952344;28;20484;-73
2023/05/20 12:43:42;;;;;;;1.80;1.80;;;17.10;99.90;;;;;;4964507;28;20479;-73
2023/05/20 12:46:10;;;;;;;1.03;1.03;;;17.00;99.90;;;;;;4958111;28;20483;-73
2023/05/20 12:48:38;;;;;;;1.30;1.30;;;17.10;99.90;;;;;;4967060;28;20460;-73
2023/05/20 12:51:05;;;;;;;1.03;1.03;;;17.10;99.90;;;;;;4971311;28;20471;-73
2023/05/20 12:53:32;;;;;;;1.33;1.23;;;17.20;99.90;;;;;;4969360;28;20979;-73
2023/05/20 12:55:58;;;;;;;1.13;1.10;;;17.20;99.90;;;;;;4961772;28;20520;-72
2023/05/20 12:58:25;;;;;;;1.03;1.03;;;17.20;99.90;;;;;;4960521;28;20492;-72
2023/05/20 13:00:52;;;;;;;0.93;0.93;;;17.20;99.90;;;;;;4969492;28;20470;-72
2023/05/20 13:03:19;;;;;;;1.27;1.23;;;17.20;99.90;;;;;;4953214;28;20464;-72
2023/05/20 13:05:47;;;;;;;1.80;1.23;;;17.20;99.90;;;;;;4962637;28;20472;-73
2023/05/20 13:08:14;;;;;;;1.17;1.17;;;17.10;99.90;;;;;;4958152;28;20492;-72
2023/05/20 13:10:41;;;;;;;1.13;1.03;;;17.00;99.90;;;;;;4953711;28;20642;-73
2023/05/20 13:13:07;;;;;;;1.47;1.27;;;17.00;99.90;;;;;;4961713;28;20471;-73
2023/05/20 13:15:35;;;;;;;1.23;1.23;;;16.90;99.90;;;;;;4962106;28;20468;-73
2023/05/20 13:18:04;;;;;;;1.20;1.20;;;16.90;99.90;;;;;;4970551;28;20499;-72
2023/05/20 13:20:31;;;;;;;1.47;1.23;;;16.90;99.90;;;;;;4961120;28;20949;-73
2023/05/20 13:22:59;;;;;;;0.93;0.93;;;17.10;99.90;;;;;;4957134;28;20468;-73
2023/05/20 13:25:26;;;;;;;0.70;0.70;;;17.20;99.90;;;;;;4966696;28;20855;-73
2023/05/20 13:27:53;;;;;;;1.47;1.47;;;17.30;99.90;;;;;;4954034;28;20480;-72
2023/05/20 13:30:20;;;;;;;1.40;1.37;;;17.30;99.90;;;;;;4955859;28;20480;-72
2023/05/20 13:32:47;;;;;;;1.13;1.13;;;17.20;99.90;;;;;;4954935;28;20589;-72
2023/05/20 13:35:15;;;;;;;1.33;1.33;;;17.00;99.90;;;;;;4957373;28;20862;-73
2023/05/20 13:37:42;;;;;;;0.87;0.87;;;17.00;99.90;;;;;;4962873;28;20907;-72
2023/05/20 13:40:12;;;;;;;2.93;1.50;;;17.00;99.90;;;;;;4965761;28;20980;-71
2023/05/20 13:42:38;;;;;;;1.10;1.10;;;16.90;99.90;;;;;;4965776;28;20840;-71
2023/05/20 13:45:06;;;;;;;1.37;1.27;;;16.90;99.90;;;;;;4971185;28;20482;-72
2023/05/20 13:47:33;;;;;;;1.40;1.07;;;17.10;99.90;;;;;;4968178;28;20496;-72
2023/05/20 13:50:00;;;;;;;1.27;1.27;;;17.20;99.90;;;;;;4970318;28;20464;-72
2023/05/20 13:52:26;;;;;;;0.90;0.90;;;17.30;99.90;;;;;;4967104;28;20469;-72
2023/05/20 13:54:53;;;;;;;0.77;0.77;;;17.30;99.90;;;;;;4970674;28;20526;-73
2023/05/20 13:57:22;;;;;;;1.33;1.33;;;17.30;99.90;;;;;;4970545;28;20502;-72
2023/05/20 13:59:49;;;;;;;1.63;1.50;;;17.40;99.90;;;;;;4968693;28;20484;-73
2023/05/20 14:02:15;;;;;;;0.93;0.93;;;17.40;99.90;;;;;;4964423;28;20472;-73
2023/05/20 14:04:43;;;;;;;1.30;1.20;;;17.60;99.90;;;;;;4961772;28;20505;-70
2023/05/20 14:07:10;;;;;;;1.10;1.10;;;17.60;99.90;;;;;;4962702;28;20901;-73
2023/05/20 14:09:37;;;;;;;0.80;0.80;;;17.60;99.90;;;;;;4971711;28;20462;-72
2023/05/20 14:12:05;;;;;;;0.97;0.97;;;17.70;99.90;;;;;;4971686;28;20472;-73
2023/05/20 14:14:33;;;;;;;1.43;1.43;;;17.80;99.90;;;;;;4965431;28;20471;-72
2023/05/20 14:17:00;;;;;;;0.80;0.80;;;17.90;99.90;;;;;;4963782;28;20611;-73
2023/05/20 14:19:26;;;;;;;0.80;0.80;;;17.90;99.90;;;;;;4965065;28;20495;-73
2023/05/20 14:21:53;;;;;;;0.80;0.80;;;17.80;99.90;;;;;;4971396;28;20916;-72
2023/05/20 14:24:20;;;;;;;0.97;0.97;;;17.70;99.90;;;;;;4971984;28;20578;-73
2023/05/20 14:26:47;;;;;;;0.70;0.70;;;17.60;99.90;;;;;;4971662;28;20487;-72
2023/05/20 14:29:14;;;;;;;1.33;1.13;;;17.40;99.90;;;;;;4965804;28;20836;-72
2023/05/20 14:31:42;;;;;;;1.00;1.00;;;17.40;99.90;;;;;;4969214;28;20552;-73
2023/05/20 14:34:09;;;;;;;1.10;1.10;;;17.30;99.90;;;;;;4966560;28;20476;-73
2023/05/20 14:36:36;;;;;;;0.63;0.63;;;17.20;99.90;;;;;;4965362;28;20499;-72
2023/05/20 14:39:02;;;;;;;0.63;0.63;;;17.20;99.90;;;;;;4957920;28;20572;-72
2023/05/20 14:41:29;;;;;;;1.27;1.20;;;17.30;99.90;;;;;;4952807;28;20475;-72
2023/05/20 14:43:56;;;;;;;1.13;1.13;;;17.30;99.90;;;;;;4969224;28;20926;-73
2023/05/20 14:46:23;;;;;;;1.53;1.43;;;17.30;99.90;;;;;;4958478;28;20537;-73
2023/05/20 14:48:51;;;;;;;0.90;0.90;;;17.20;99.90;;;;;;4957917;28;20460;-73
2023/05/20 14:51:18;;;;;;;1.00;1.00;;;17.30;99.90;;;;;;4971487;28;20484;-73
2023/05/20 14:53:44;;;;;;;1.10;1.10;;;17.40;99.90;;;;;;4965310;28;20982;-73
2023/05/20 14:56:11;;;;;;;0.67;0.67;;;17.50;99.90;;;;;;4959297;28;20484;-73
2023/05/20 14:58:38;;;;;;;0.50;0.50;;;17.50;99.90;;;;;;4970058;28;20464;-73
2023/05/20 15:01:05;;;;;;;1.70;0.97;;;17.40;99.90;;;;;;4972463;28;20545;-73
2023/05/20 15:03:32;;;;;;;1.40;1.30;;;17.40;99.90;;;;;;4970964;28;20475;-72
2023/05/20 15:06:00;;;;;;;0.90;0.90;;;17.50;99.90;;;;;;4960287;28;21163;-73
2023/05/20 15:08:26;;;;;;;0.90;0.90;;;17.60;99.90;;;;;;4971749;28;20464;-73
2023/05/20 15:10:53;;;;;;;1.50;0.90;;;17.70;99.90;;;;;;4971328;28;20952;-73
2023/05/20 15:13:20;;;;;;;1.17;1.17;;;17.80;99.90;;;;;;4970429;28;20471;-73
2023/05/20 15:15:47;;;;;;;2.20;2.00;;;17.80;99.90;;;;;;4958383;28;20480;-73
2023/05/20 15:18:14;;;;;;;1.50;1.40;;;18.00;99.90;;;;;;4952811;28;20865;-73
2023/05/20 15:20:40;;;;;;;1.07;1.07;;;18.10;99.90;;;;;;4965527;28;20484;-73
2023/05/20 15:23:09;;;;;;;2.00;0.90;;;18.00;99.90;;;;;;4970190;28;20478;-73
2023/05/20 15:25:35;;;;;;;0.90;0.90;;;18.10;99.90;;;;;;4962494;28;20467;-73
2023/05/20 15:28:02;;;;;;;1.80;1.80;;;18.20;99.90;;;;;;4969386;28;20492;-73
2023/05/20 15:30:29;;;;;;;1.20;1.20;;;18.10;99.90;;;;;;4971776;28;20559;-72
2023/05/20 15:32:56;;;;;;;0.80;0.80;;;18.10;99.90;;;;;;4967712;28;20467;-73
2023/05/20 15:35:23;;;;;;;2.40;1.60;;;17.90;99.90;;;;;;4954438;28;20494;-72
2023/05/20 15:37:50;;;;;;;1.20;1.10;;;17.90;99.90;;;;;;4971471;28;20510;-72
2023/05/20 15:40:18;;;;;;;1.13;1.00;;;17.80;99.90;;;;;;4969773;28;20479;-73
2023/05/20 15:42:46;;;;;;;0.70;0.70;;;17.80;99.90;;;;;;4959756;28;20841;-74
2023/05/20 15:45:13;;;;;;;0.97;0.97;;;17.80;99.90;;;;;;4963440;28;20460;-73
2023/05/20 15:47:39;;;;;;;1.47;1.37;;;17.70;99.90;;;;;;4971173;28;21012;-74
2023/05/20 15:50:07;;;;;;;1.80;1.80;;;17.60;99.90;;;;;;4964127;28;20462;-75
2023/05/20 15:52:34;;;;;;;1.63;1.43;;;17.50;99.90;;;;;;4970570;28;20563;-69
2023/05/20 15:55:01;;;;;;;0.83;0.83;;;17.40;99.90;;;;;;4965309;28;20465;-65
2023/05/20 15:57:29;;;;;;;2.07;1.93;;;17.40;99.90;;;;;;4966557;28;20858;-65
2023/05/20 15:59:56;;;;;;;1.67;1.57;;;17.30;99.90;;;;;;4963405;28;20483;-65
2023/05/20 16:02:23;;;;;;;1.37;1.37;;;17.40;99.90;;;;;;4954898;28;20558;-68
2023/05/20 16:04:51;;;;;;;1.87;1.77;;;17.40;99.90;;;;;;4966774;28;20467;-73
2023/05/20 16:07:17;;;;;;;1.47;1.47;;;17.40;99.90;;;;;;4961268;28;20488;-73
2023/05/20 16:09:44;;;;;;;1.90;1.40;;;17.50;99.90;;;;;;4966593;28;20475;-71
2023/05/20 16:12:11;;;;;;;1.87;1.87;;;17.40;99.90;;;;;;4962890;28;20851;-72
2023/05/20 16:14:40;;;;;;;0.80;0.80;;;17.40;99.90;;;;;;4959788;28;20469;-73
2023/05/20 16:17:06;;;;;;;1.77;1.77;;;17.40;99.90;;;;;;4959448;28;20489;-72
2023/05/20 16:19:33;;;;;;;1.20;1.20;;;17.40;99.90;;;;;;4963147;28;20850;-72
2023/05/20 16:22:00;;;;;;;2.87;1.97;;;17.40;99.90;;;;;;4959788;28;20487;-73
2023/05/20 16:24:27;;;;;;;1.47;1.47;;;17.30;99.90;;;;;;4957539;28;20469;-72
2023/05/20 16:26:54;;;;;;;1.30;1.30;;;17.30;99.90;;;;;;4966798;28;20510;-72
2023/05/20 16:29:21;;;;;;;1.30;1.30;;;17.30;99.90;;;;;;4963250;28;20467;-72
2023/05/20 16:31:49;;;;;;;1.93;1.80;;;17.20;99.90;;;;;;4965129;28;20483;-72
2023/05/20 16:34:16;;;;;;;1.20;1.20;;;17.20;99.90;;;;;;4954685;28;20581;-74
2023/05/20 16:36:43;;;;;;;1.10;1.10;;;17.20;99.90;;;;;;4968926;28;20484;-73
2023/05/20 16:39:10;;;;;;;3.10;1.60;;;17.20;99.90;;;;;;4971572;28;20521;-72
2023/05/20 16:41:37;;;;;;;1.20;1.20;;;17.30;99.90;;;;;;4961544;28;20597;-73
2023/05/20 16:44:04;;;;;;;1.80;1.77;;;17.20;99.90;;;;;;4956649;28;20463;-72
2023/05/20 16:46:31;;;;;;;1.07;1.07;;;17.20;99.90;;;;;;4964062;28;20560;-74
2023/05/20 16:48:59;;;;;;;1.70;1.70;;;17.20;99.90;;;;;;4966398;28;20483;-72
2023/05/20 16:51:26;;;;;;;2.20;1.63;;;17.20;99.90;;;;;;4969786;28;20471;-72